createdAt,value
2022-11-28T01:12:37.062Z,13.88
2022-11-28T01:15:05.605Z,13.85
2022-11-28T01:20:20.036Z,13.95
2022-11-28T01:22:46.740Z,12.30
2022-11-28T01:25:13.831Z,12.05
2022-11-28T06:59:51.672Z,13.80
2022-11-28T07:02:20.300Z,14.90
2022-11-28T07:04:47.089Z,15.00
2022-11-28T07:07:16.492Z,14.02
2022-11-28T07:09:44.358Z,16.85
2022-11-28T07:12:11.255Z,16.05
2022-11-28T07:19:54.651Z,15.18
2022-11-28T07:22:22.341Z,14.00
2022-11-28T07:24:48.891Z,16.27
2022-11-28T07:27:16.129Z,17.02
2022-11-28T07:29:44.317Z,16.50
2022-11-28T07:32:11.257Z,16.17
2022-11-28T07:38:25.383Z,16.27
2022-11-28T07:40:52.006Z,16.83
2022-11-28T07:43:18.577Z,18.20
2022-11-28T07:45:59.884Z,16.40
2022-11-28T07:48:49.576Z,17.27
2022-11-28T07:51:23.015Z,17.77
2022-11-28T07:53:50.015Z,17.67
2022-11-28T07:56:19.738Z,15.48
2022-11-28T07:58:47.380Z,16.00
2022-11-28T08:01:16.881Z,15.10
2022-11-28T08:03:44.844Z,16.90
2022-11-28T08:06:12.723Z,15.23
2022-11-28T08:08:39.513Z,14.60
2022-11-28T08:11:08.147Z,14.70
2022-11-28T08:13:36.711Z,14.30
2022-11-28T08:16:06.670Z,13.75
2022-11-28T08:33:13.805Z,13.18
2022-11-28T08:35:40.856Z,12.88
2022-11-28T08:38:07.515Z,13.07
2022-11-28T08:40:34.128Z,13.27
2022-11-28T08:43:00.722Z,13.40
2022-11-28T08:45:27.286Z,13.57
2022-11-28T08:47:53.829Z,13.45
2022-11-28T08:50:20.556Z,13.75
2022-11-28T08:53:11.876Z,12.55
2022-11-28T08:55:41.982Z,12.18
2022-11-28T08:58:08.741Z,12.32
2022-11-28T09:00:35.581Z,13.50
2022-11-28T09:13:42.781Z,14.77
2022-11-28T09:16:12.317Z,15.05
2022-11-28T09:18:41.923Z,14.25
2022-11-28T09:24:06.394Z,14.13
2022-11-28T09:26:33.398Z,11.95
2022-11-28T09:29:00.347Z,12.82
2022-11-28T09:31:27.373Z,13.27
2022-11-28T09:37:50.038Z,12.82
2022-11-28T09:40:36.601Z,13.57
2022-11-28T09:43:06.776Z,13.62
2022-11-28T09:48:39.151Z,11.52
2022-11-28T09:51:40.913Z,12.60
2022-11-28T09:54:39.738Z,12.20
2022-11-28T09:57:14.503Z,12.70
2022-11-28T09:59:41.347Z,11.93
2022-11-28T10:02:19.683Z,12.35
2022-11-28T10:05:13.194Z,11.15
2022-11-28T10:10:32.300Z,12.35
2022-11-28T10:14:06.592Z,12.95
2022-11-28T10:16:53.505Z,13.30
2022-11-28T10:19:54.339Z,12.73
2022-11-28T10:23:14.340Z,11.73
2022-11-28T10:26:39.469Z,12.32
2022-11-28T11:41:29.911Z,15.18
2022-11-28T11:43:57.452Z,14.45
2022-11-28T11:46:24.075Z,15.43
2022-11-28T11:48:52.746Z,16.98
2022-11-28T11:51:35.214Z,14.10
2022-11-28T11:54:20.826Z,14.60
2022-11-28T11:57:00.650Z,13.27
2022-11-28T11:59:45.906Z,15.82
2022-11-28T12:02:46.147Z,13.70
2022-11-28T12:06:12.126Z,15.52
2022-11-28T12:08:43.673Z,13.75
2022-11-28T12:11:15.888Z,14.98
2022-11-28T12:13:42.869Z,15.00
2022-11-28T12:16:30.125Z,14.10
2022-11-28T12:19:15.569Z,14.68
2022-11-28T12:30:01.700Z,21.58
2022-11-28T12:32:49.517Z,14.10
2022-11-28T12:42:25.694Z,14.50
2022-11-28T12:45:07.557Z,14.82
2022-11-28T12:47:52.567Z,14.73
2022-11-28T12:50:51.199Z,15.68
2022-11-28T12:53:32.948Z,15.90
2022-11-28T12:56:49.763Z,15.90
2022-11-28T12:59:40.134Z,15.65
2022-11-28T13:02:41.365Z,15.15
2022-11-28T13:05:20.164Z,16.92
2022-11-28T13:21:50.217Z,16.05
2022-11-28T13:24:35.170Z,17.50
2022-11-28T13:27:36.060Z,16.42
2022-11-28T13:30:09.331Z,16.23
2022-11-28T13:33:00.203Z,16.37
2022-11-28T13:35:34.225Z,15.95
2022-11-28T13:41:52.737Z,17.27
2022-11-28T13:44:43.245Z,15.68
2022-11-28T14:29:39.911Z,17.05
2022-11-28T14:32:29.428Z,15.55
2022-11-28T14:34:54.904Z,16.05
2022-11-28T14:37:21.810Z,16.62
2022-11-28T14:39:49.798Z,16.60
2022-11-28T14:42:36.950Z,16.15
2022-11-28T14:45:23.060Z,18.83
2022-11-28T14:48:18.034Z,16.02
2022-11-28T14:50:59.067Z,17.10
2022-11-28T14:53:33.352Z,16.62
2022-11-28T14:56:29.408Z,17.40
2022-11-28T14:58:58.950Z,17.02
2022-11-28T15:01:57.040Z,17.92
2022-11-28T15:04:47.996Z,16.75
2022-11-28T15:07:52.120Z,19.50
2022-11-28T15:10:21.543Z,19.02
2022-11-28T15:12:51.914Z,19.65
2022-11-28T15:17:55.144Z,19.70
2022-11-28T15:20:29.547Z,18.95
2022-11-28T15:22:56.160Z,20.02
2022-11-28T15:25:37.229Z,18.90
2022-11-28T15:28:18.094Z,19.42
2022-11-28T15:30:53.323Z,19.25
2022-11-28T15:33:21.068Z,19.30
2022-11-28T15:36:02.572Z,19.25
2022-11-28T15:38:34.650Z,19.90
2022-11-28T15:41:01.474Z,20.77
2022-11-28T15:43:30.613Z,22.65
2022-11-28T15:46:03.638Z,20.17
2022-11-28T15:51:07.594Z,19.65
2022-11-28T15:53:41.309Z,19.73
2022-11-28T15:56:14.591Z,20.58
2022-11-28T15:58:43.269Z,20.90
2022-11-28T16:01:18.141Z,22.77
2022-11-28T16:03:49.949Z,21.10
2022-11-28T16:06:18.742Z,21.10
2022-11-28T16:08:59.145Z,20.48
2022-11-28T16:11:43.992Z,19.60
2022-11-28T16:14:11.332Z,21.23
2022-11-28T16:19:40.224Z,21.58
2022-11-28T16:22:11.194Z,25.70
2022-11-28T16:24:51.203Z,23.30
2022-11-28T16:27:45.662Z,23.35
2022-11-28T16:30:47.889Z,22.60
2022-11-28T16:33:43.423Z,21.67
2022-11-28T16:36:16.162Z,21.23
2022-11-28T16:38:44.584Z,21.75
2022-11-28T16:41:25.911Z,22.45
2022-11-28T16:44:05.828Z,24.20
2022-11-28T16:46:41.106Z,23.60
2022-11-28T16:49:37.644Z,23.87
2022-11-28T16:52:27.407Z,23.60
2022-11-28T16:54:55.318Z,26.02
2022-11-28T16:57:22.903Z,28.05
2022-11-28T16:59:58.364Z,27.65
2022-11-28T17:02:28.924Z,29.98
2022-11-28T17:36:03.378Z,27.95
2022-11-28T17:38:32.915Z,29.37
2022-11-28T17:41:03.026Z,31.95
2022-11-28T17:43:32.396Z,31.15
2022-11-28T17:48:31.877Z,29.50
2022-11-28T17:50:59.409Z,30.88
2022-11-28T17:53:25.967Z,31.55
2022-11-28T17:55:58.363Z,29.77
2022-11-28T17:58:26.002Z,27.87
2022-11-28T18:00:59.945Z,30.50
2022-11-28T18:03:28.548Z,30.17
2022-11-28T18:05:55.202Z,28.33
2022-11-28T18:08:22.551Z,28.58
2022-11-28T18:13:47.107Z,29.63
2022-11-28T18:18:49.618Z,27.40
2022-11-28T18:21:16.758Z,29.05
2022-11-28T18:23:46.165Z,28.00
2022-11-28T18:26:15.171Z,28.55
2022-11-28T18:28:44.884Z,27.85
2022-11-28T18:31:25.796Z,30.12
2022-11-28T18:33:56.264Z,31.75
2022-11-28T18:36:27.804Z,30.65
2022-11-28T18:38:55.938Z,29.95
2022-11-28T18:41:22.616Z,32.03
2022-11-28T18:43:49.374Z,30.75
2022-11-28T18:46:19.221Z,29.55
2022-11-28T18:48:47.648Z,26.85
2022-11-28T18:51:15.288Z,29.33
2022-11-28T18:53:50.450Z,30.90
2022-11-28T18:56:17.413Z,30.35
2022-11-28T18:58:49.402Z,29.80
2022-11-28T19:01:25.142Z,30.08
2022-11-28T19:04:02.764Z,28.25
2022-11-28T19:51:12.406Z,28.00
2022-11-28T19:53:43.849Z,27.58
2022-11-28T19:56:23.485Z,27.70
2022-11-28T19:58:51.453Z,28.12
2022-11-28T20:01:23.758Z,27.17
2022-11-28T20:03:51.097Z,29.85
2022-11-28T20:06:24.016Z,29.17
2022-11-28T20:09:14.212Z,26.65
2022-11-28T20:31:52.469Z,30.05
2022-11-28T20:34:22.706Z,30.98
2022-11-28T21:06:16.300Z,31.87
2022-11-28T21:08:45.280Z,29.98
2022-11-28T21:11:43.509Z,29.83
2022-11-28T21:14:07.685Z,29.67
2022-11-28T21:16:37.457Z,28.42
2022-11-28T21:19:10.521Z,28.33
2022-11-28T21:21:39.493Z,29.15
2022-11-28T21:24:12.475Z,29.40
2022-11-28T21:26:42.367Z,27.90
2022-11-28T21:29:13.001Z,29.30
2022-11-28T21:34:22.755Z,27.37
2022-11-28T21:36:49.376Z,26.95
2022-11-28T21:42:03.146Z,26.42
2022-11-28T21:44:29.738Z,25.25
2022-11-28T21:46:56.599Z,24.77
2022-11-28T21:49:23.204Z,26.05
2022-11-28T22:27:59.940Z,26.33
2022-11-28T22:30:26.555Z,27.73
2022-11-28T22:32:53.131Z,25.30
2022-11-28T22:43:05.871Z,22.05
2022-11-28T22:45:32.612Z,24.33
2022-11-28T22:47:59.334Z,24.63
2022-11-28T22:50:28.909Z,23.23
2022-11-28T22:52:55.548Z,23.50
2022-11-28T23:59:33.746Z,22.27
